Weather at Emerald Airport

Public forecast

Using degrees Celsius for public forecast. Weather courtesy of forecast.io.

Current aviation weather report (METAR) for Emerald Airport

Retrieved 2021/04/20 12:00 UTC (1 hour ago):

YEML 201200Z AUTO 17003KT 9999 // OVC088 25/16 Q1016

Closest aviation forecast (TAF) to Emerald Airport

Closest forecast is Rockhampton Airport, 126.9 nm (235.1 km) E. Retrieved 2021/04/20 12:36 UTC (25 minutes ago):

TAF YBRK 201109Z 2012/2112 VRB03KT CAVOK FM210000 34006KT CAVOK